Terminal Aerodrome Forecast
Issued by NWS Twin Cities, MN

Home | Current Version | Previous Version | Text Only | Print | Product List | Glossary On
Versions: 1 2 3 4 5 6 7 8 9 10 11 12 13 14 15 16 17 18 19 20 21 22 23 24
000
FTUS43 KMPX 200400 AAB
TAFSTC
TAF AMD
KSTC 200404Z 2004/2024 VRB02KT 1/4SM FG VV002
      TEMPO 2005/2008 3/4SM BR SCT005
     FM200800 29006KT P6SM SCT015 BKN120
     FM201400 30011KT P6SM BKN035
     FM202200 29013G20KT P6SM BKN045 OVC080
      TEMPO 2022/2024 2SM TSRA OVC030CB=

USA.gov is the U.S. government's official web portal to all federal, state and local government web resources and services.